sensor_id;sensor_type;location;lat;lon;timestamp;temperature;humidity
9466;DHT22;4771;48.726;9.006;2024-03-08T04:26:07;2.70;99.90
9466;DHT22;4771;48.726;9.006;2024-03-08T04:28:34;2.70;99.90
9466;DHT22;4771;48.726;9.006;2024-03-08T04:31:03;2.70;99.90
9466;DHT22;4771;48.726;9.006;2024-03-08T04:33:30;2.70;99.90
9466;DHT22;4771;48.726;9.006;2024-03-08T04:35:57;2.70;99.90
9466;DHT22;4771;48.726;9.006;2024-03-08T04:38:24;2.90;99.90
9466;DHT22;4771;48.726;9.006;2024-03-08T04:40:51;2.70;99.90
9466;DHT22;4771;48.726;9.006;2024-03-08T04:43:20;2.70;99.90
9466;DHT22;4771;48.726;9.006;2024-03-08T04:45:48;2.70;99.90
9466;DHT22;4771;48.726;9.006;2024-03-08T04:48:15;2.60;99.90
9466;DHT22;4771;48.726;9.006;2024-03-08T04:50:42;2.60;99.90
9466;DHT22;4771;48.726;9.006;2024-03-08T04:53:10;2.60;99.90
9466;DHT22;4771;48.726;9.006;2024-03-08T04:55:37;2.60;99.90
9466;DHT22;4771;48.726;9.006;2024-03-08T04:58:09;2.60;99.90
9466;DHT22;4771;48.726;9.006;2024-03-08T05:00:37;2.60;99.90
9466;DHT22;4771;48.726;9.006;2024-03-08T05:03:04;2.50;99.90
9466;DHT22;4771;48.726;9.006;2024-03-08T05:05:31;2.50;99.90
9466;DHT22;4771;48.726;9.006;2024-03-08T05:07:59;2.50;99.90
9466;DHT22;4771;48.726;9.006;2024-03-08T05:10:27;3.10;99.90
9466;DHT22;4771;48.726;9.006;2024-03-08T05:12:54;2.50;99.90
9466;DHT22;4771;48.726;9.006;2024-03-08T05:15:21;2.50;99.90
9466;DHT22;4771;48.726;9.006;2024-03-08T05:17:55;2.50;99.90
9466;DHT22;4771;48.726;9.006;2024-03-08T05:20:25;2.50;99.90
9466;DHT22;4771;48.726;9.006;2024-03-08T05:22:52;2.50;99.90
9466;DHT22;4771;48.726;9.006;2024-03-08T05:25:19;2.50;99.90
9466;DHT22;4771;48.726;9.006;2024-03-08T05:27:46;2.50;99.90
9466;DHT22;4771;48.726;9.006;2024-03-08T05:30:14;2.40;99.90
9466;DHT22;4771;48.726;9.006;2024-03-08T05:32:41;2.40;99.90
9466;DHT22;4771;48.726;9.006;2024-03-08T05:35:11;2.40;99.90
9466;DHT22;4771;48.726;9.006;2024-03-08T05:37:38;2.50;99.90
9466;DHT22;4771;48.726;9.006;2024-03-08T05:40:06;2.50;99.90
9466;DHT22;4771;48.726;9.006;2024-03-08T05:42:35;2.50;99.90
9466;DHT22;4771;48.726;9.006;2024-03-08T05:45:03;2.50;99.90
9466;DHT22;4771;48.726;9.006;2024-03-08T05:47:31;2.50;99.90
9466;DHT22;4771;48.726;9.006;2024-03-08T05:50:07;2.50;99.90
9466;DHT22;4771;48.726;9.006;2024-03-08T05:52:43;2.50;99.90
9466;DHT22;4771;48.726;9.006;2024-03-08T05:55:10;2.60;99.90
9466;DHT22;4771;48.726;9.006;2024-03-08T05:57:39;2.90;99.90
9466;DHT22;4771;48.726;9.006;2024-03-08T06:00:11;2.50;99.90
9466;DHT22;4771;48.726;9.006;2024-03-08T06:02:38;2.50;99.90
9466;DHT22;4771;48.726;9.006;2024-03-08T06:05:08;2.50;99.90
9466;DHT22;4771;48.726;9.006;2024-03-08T06:07:35;2.50;99.90
9466;DHT22;4771;48.726;9.006;2024-03-08T06:10:08;2.60;99.90
9466;DHT22;4771;48.726;9.006;2024-03-08T06:12:37;2.60;99.90
9466;DHT22;4771;48.726;9.006;2024-03-08T06:15:07;2.60;99.90
9466;DHT22;4771;48.726;9.006;2024-03-08T06:17:35;2.60;99.90
9466;DHT22;4771;48.726;9.006;2024-03-08T06:20:02;2.60;99.90
9466;DHT22;4771;48.726;9.006;2024-03-08T06:22:36;2.60;99.90
9466;DHT22;4771;48.726;9.006;2024-03-08T06:25:04;2.60;99.90
9466;DHT22;4771;48.726;9.006;2024-03-08T06:27:34;2.50;99.90
9466;DHT22;4771;48.726;9.006;2024-03-08T06:30:04;2.50;99.90
9466;DHT22;4771;48.726;9.006;2024-03-08T06:32:34;2.50;99.90
9466;DHT22;4771;48.726;9.006;2024-03-08T06:35:01;2.60;99.90
9466;DHT22;4771;48.726;9.006;2024-03-08T06:37:31;2.60;99.90
9466;DHT22;4771;48.726;9.006;2024-03-08T06:39:58;2.60;99.90
9466;DHT22;4771;48.726;9.006;2024-03-08T06:42:26;2.60;99.90
9466;DHT22;4771;48.726;9.006;2024-03-08T06:44:54;2.70;99.90
9466;DHT22;4771;48.726;9.006;2024-03-08T06:47:28;2.70;99.90
9466;DHT22;4771;48.726;9.006;2024-03-08T06:49:56;2.90;99.90
9466;DHT22;4771;48.726;9.006;2024-03-08T06:52:22;2.80;99.90
9466;DHT22;4771;48.726;9.006;2024-03-08T06:54:50;2.80;99.90
9466;DHT22;4771;48.726;9.006;2024-03-08T06:57:18;2.80;99.90
9466;DHT22;4771;48.726;9.006;2024-03-08T06:59:47;2.90;99.90
9466;DHT22;4771;48.726;9.006;2024-03-08T07:02:16;2.90;99.90
9466;DHT22;4771;48.726;9.006;2024-03-08T07:04:43;2.90;99.90
9466;DHT22;4771;48.726;9.006;2024-03-08T07:07:10;3.00;99.90
9466;DHT22;4771;48.726;9.006;2024-03-08T07:09:37;3.30;99.90
9466;DHT22;4771;48.726;9.006;2024-03-08T07:12:04;3.20;99.90
9466;DHT22;4771;48.726;9.006;2024-03-08T07:14:31;3.10;99.90
9466;DHT22;4771;48.726;9.006;2024-03-08T07:16:58;3.20;99.90
9466;DHT22;4771;48.726;9.006;2024-03-08T07:19:29;3.20;99.90
9466;DHT22;4771;48.726;9.006;2024-03-08T07:21:55;3.20;99.90
9466;DHT22;4771;48.726;9.006;2024-03-08T07:24:22;3.30;99.90
9466;DHT22;4771;48.726;9.006;2024-03-08T07:27:04;3.40;99.90
9466;DHT22;4771;48.726;9.006;2024-03-08T07:29:31;3.40;99.90
9466;DHT22;4771;48.726;9.006;2024-03-08T07:31:58;3.40;99.90
9466;DHT22;4771;48.726;9.006;2024-03-08T07:34:38;3.40;99.90
9466;DHT22;4771;48.726;9.006;2024-03-08T07:37:06;3.00;99.90
9466;DHT22;4771;48.726;9.006;2024-03-08T07:39:37;3.50;99.90
9466;DHT22;4771;48.726;9.006;2024-03-08T07:42:04;3.50;99.90
9466;DHT22;4771;48.726;9.006;2024-03-08T07:44:31;3.50;99.90
9466;DHT22;4771;48.726;9.006;2024-03-08T07:46:59;3.50;99.90
9466;DHT22;4771;48.726;9.006;2024-03-08T07:49:26;3.50;99.90
9466;DHT22;4771;48.726;9.006;2024-03-08T07:51:54;3.50;99.90
9466;DHT22;4771;48.726;9.006;2024-03-08T07:54:21;3.60;99.90
9466;DHT22;4771;48.726;9.006;2024-03-08T07:56:50;3.50;99.90
9466;DHT22;4771;48.726;9.006;2024-03-08T07:59:18;3.50;99.90
9466;DHT22;4771;48.726;9.006;2024-03-08T08:01:46;3.40;99.90
9466;DHT22;4771;48.726;9.006;2024-03-08T08:04:13;3.50;99.90
9466;DHT22;4771;48.726;9.006;2024-03-08T08:06:46;3.60;99.90
9466;DHT22;4771;48.726;9.006;2024-03-08T08:09:14;3.60;99.90
9466;DHT22;4771;48.726;9.006;2024-03-08T08:11:47;3.60;99.90
9466;DHT22;4771;48.726;9.006;2024-03-08T08:14:15;3.60;99.90
9466;DHT22;4771;48.726;9.006;2024-03-08T08:16:42;3.70;99.90
9466;DHT22;4771;48.726;9.006;2024-03-08T08:19:10;3.70;99.90
9466;DHT22;4771;48.726;9.006;2024-03-08T08:21:38;3.70;99.90
9466;DHT22;4771;48.726;9.006;2024-03-08T08:24:06;3.70;99.90
9466;DHT22;4771;48.726;9.006;2024-03-08T08:26:34;3.80;99.90
9466;DHT22;4771;48.726;9.006;2024-03-08T08:29:01;3.80;99.90
9466;DHT22;4771;48.726;9.006;2024-03-08T08:31:28;3.80;99.90
9466;DHT22;4771;48.726;9.006;2024-03-08T08:33:56;3.80;99.90
9466;DHT22;4771;48.726;9.006;2024-03-08T08:36:25;3.20;99.90
9466;DHT22;4771;48.726;9.006;2024-03-08T08:38:55;3.90;99.90
9466;DHT22;4771;48.726;9.006;2024-03-08T08:41:23;3.90;99.90
9466;DHT22;4771;48.726;9.006;2024-03-08T08:43:52;3.90;99.90
9466;DHT22;4771;48.726;9.006;2024-03-08T08:46:19;3.90;99.90
9466;DHT22;4771;48.726;9.006;2024-03-08T08:48:47;3.90;99.90
9466;DHT22;4771;48.726;9.006;2024-03-08T08:51:17;3.90;99.90
9466;DHT22;4771;48.726;9.006;2024-03-08T08:53:45;4.00;99.90
9466;DHT22;4771;48.726;9.006;2024-03-08T08:56:16;4.50;99.90
9466;DHT22;4771;48.726;9.006;2024-03-08T08:58:44;3.30;99.90
9466;DHT22;4771;48.726;9.006;2024-03-08T09:01:13;3.80;99.90
9466;DHT22;4771;48.726;9.006;2024-03-08T09:03:42;4.00;99.90
9466;DHT22;4771;48.726;9.006;2024-03-08T09:06:12;4.00;99.90
9466;DHT22;4771;48.726;9.006;2024-03-08T09:08:41;4.00;99.90
9466;DHT22;4771;48.726;9.006;2024-03-08T09:11:09;4.00;99.90
9466;DHT22;4771;48.726;9.006;2024-03-08T09:13:36;4.00;99.90
9466;DHT22;4771;48.726;9.006;2024-03-08T09:16:04;4.00;99.90
9466;DHT22;4771;48.726;9.006;2024-03-08T09:18:33;4.00;99.90
9466;DHT22;4771;48.726;9.006;2024-03-08T09:21:00;4.10;99.90
9466;DHT22;4771;48.726;9.006;2024-03-08T09:23:28;4.10;99.90
9466;DHT22;4771;48.726;9.006;2024-03-08T09:25:57;4.20;99.90
9466;DHT22;4771;48.726;9.006;2024-03-08T09:28:24;4.20;99.90
9466;DHT22;4771;48.726;9.006;2024-03-08T09:30:53;4.30;99.90
9466;DHT22;4771;48.726;9.006;2024-03-08T09:33:20;4.30;99.90
9466;DHT22;4771;48.726;9.006;2024-03-08T09:35:49;4.20;99.90
9466;DHT22;4771;48.726;9.006;2024-03-08T09:38:17;4.30;99.90
9466;DHT22;4771;48.726;9.006;2024-03-08T09:40:46;4.30;99.90
9466;DHT22;4771;48.726;9.006;2024-03-08T09:43:13;4.40;99.90
9466;DHT22;4771;48.726;9.006;2024-03-08T09:45:40;5.00;99.90
9466;DHT22;4771;48.726;9.006;2024-03-08T09:48:10;4.40;99.90
9466;DHT22;4771;48.726;9.006;2024-03-08T09:50:40;4.50;99.90
9466;DHT22;4771;48.726;9.006;2024-03-08T09:53:08;4.40;99.90
9466;DHT22;4771;48.726;9.006;2024-03-08T09:55:37;4.40;99.90
9466;DHT22;4771;48.726;9.006;2024-03-08T09:58:08;4.50;99.90
9466;DHT22;4771;48.726;9.006;2024-03-08T10:01:14;4.50;99.90
9466;DHT22;4771;48.726;9.006;2024-03-08T10:03:41;4.60;99.90
9466;DHT22;4771;48.726;9.006;2024-03-08T10:06:10;4.70;99.90
9466;DHT22;4771;48.726;9.006;2024-03-08T10:08:41;4.70;99.90
9466;DHT22;4771;48.726;9.006;2024-03-08T10:11:08;4.70;99.90
9466;DHT22;4771;48.726;9.006;2024-03-08T10:13:37;4.70;99.90
9466;DHT22;4771;48.726;9.006;2024-03-08T10:16:11;4.60;99.90
9466;DHT22;4771;48.726;9.006;2024-03-08T10:18:38;4.70;99.90
9466;DHT22;4771;48.726;9.006;2024-03-08T10:21:07;4.70;99.90
9466;DHT22;4771;48.726;9.006;2024-03-08T10:23:36;4.80;99.90
9466;DHT22;4771;48.726;9.006;2024-03-08T10:26:17;4.80;99.90
9466;DHT22;4771;48.726;9.006;2024-03-08T10:28:48;4.80;99.90
9466;DHT22;4771;48.726;9.006;2024-03-08T10:31:15;4.80;99.90
9466;DHT22;4771;48.726;9.006;2024-03-08T10:33:43;4.90;99.90
9466;DHT22;4771;48.726;9.006;2024-03-08T10:36:11;4.90;99.90
9466;DHT22;4771;48.726;9.006;2024-03-08T10:38:39;4.90;99.90
9466;DHT22;4771;48.726;9.006;2024-03-08T10:41:08;4.90;99.90
9466;DHT22;4771;48.726;9.006;2024-03-08T10:43:54;5.00;99.90
9466;DHT22;4771;48.726;9.006;2024-03-08T10:46:30;5.10;99.90
9466;DHT22;4771;48.726;9.006;2024-03-08T10:49:04;5.10;99.90
9466;DHT22;4771;48.726;9.006;2024-03-08T10:51:33;5.10;99.90
9466;DHT22;4771;48.726;9.006;2024-03-08T10:54:01;5.10;99.90
9466;DHT22;4771;48.726;9.006;2024-03-08T10:56:29;5.20;99.90
9466;DHT22;4771;48.726;9.006;2024-03-08T10:58:58;5.20;99.90
9466;DHT22;4771;48.726;9.006;2024-03-08T11:01:25;5.40;99.90
9466;DHT22;4771;48.726;9.006;2024-03-08T11:03:52;5.30;99.90
9466;DHT22;4771;48.726;9.006;2024-03-08T11:06:31;5.40;99.90
9466;DHT22;4771;48.726;9.006;2024-03-08T11:09:08;5.50;99.90
9466;DHT22;4771;48.726;9.006;2024-03-08T11:11:42;5.50;99.90
9466;DHT22;4771;48.726;9.006;2024-03-08T11:14:44;5.70;99.90
9466;DHT22;4771;48.726;9.006;2024-03-08T11:17:14;5.80;99.90
9466;DHT22;4771;48.726;9.006;2024-03-08T11:19:46;6.00;99.90
9466;DHT22;4771;48.726;9.006;2024-03-08T11:22:21;5.90;99.90
9466;DHT22;4771;48.726;9.006;2024-03-08T11:24:50;6.00;99.90
9466;DHT22;4771;48.726;9.006;2024-03-08T11:27:17;6.10;99.90
9466;DHT22;4771;48.726;9.006;2024-03-08T11:29:59;6.20;99.90
9466;DHT22;4771;48.726;9.006;2024-03-08T11:32:35;6.20;99.90
9466;DHT22;4771;48.726;9.006;2024-03-08T11:35:06;6.40;99.90
9466;DHT22;4771;48.726;9.006;2024-03-08T11:37:34;6.40;99.90
9466;DHT22;4771;48.726;9.006;2024-03-08T11:40:01;6.50;99.90
9466;DHT22;4771;48.726;9.006;2024-03-08T11:42:30;6.50;99.90
9466;DHT22;4771;48.726;9.006;2024-03-08T11:44:57;6.50;99.90
9466;DHT22;4771;48.726;9.006;2024-03-08T11:47:24;6.50;99.90
9466;DHT22;4771;48.726;9.006;2024-03-08T11:49:52;6.60;99.90
9466;DHT22;4771;48.726;9.006;2024-03-08T11:52:19;6.60;99.90
9466;DHT22;4771;48.726;9.006;2024-03-08T11:54:51;6.70;99.90
9466;DHT22;4771;48.726;9.006;2024-03-08T11:57:20;6.90;99.90
9466;DHT22;4771;48.726;9.006;2024-03-08T11:59:52;7.10;99.90
9466;DHT22;4771;48.726;9.006;2024-03-08T12:02:20;7.30;99.90
9466;DHT22;4771;48.726;9.006;2024-03-08T12:04:56;7.50;99.90
9466;DHT22;4771;48.726;9.006;2024-03-08T12:07:23;7.70;99.90
9466;DHT22;4771;48.726;9.006;2024-03-08T12:10:14;7.80;99.90
9466;DHT22;4771;48.726;9.006;2024-03-08T12:12:43;8.00;99.90
9466;DHT22;4771;48.726;9.006;2024-03-08T12:15:10;8.30;99.90
9466;DHT22;4771;48.726;9.006;2024-03-08T12:17:39;8.40;99.90
9466;DHT22;4771;48.726;9.006;2024-03-08T12:20:15;8.50;99.90
9466;DHT22;4771;48.726;9.006;2024-03-08T12:22:42;8.60;99.90
9466;DHT22;4771;48.726;9.006;2024-03-08T12:25:11;8.80;99.90
9466;DHT22;4771;48.726;9.006;2024-03-08T12:27:38;8.90;99.90
9466;DHT22;4771;48.726;9.006;2024-03-08T12:30:22;9.00;99.90
9466;DHT22;4771;48.726;9.006;2024-03-08T12:32:53;9.10;99.90
9466;DHT22;4771;48.726;9.006;2024-03-08T12:35:26;9.20;99.90
9466;DHT22;4771;48.726;9.006;2024-03-08T12:37:54;9.30;99.90
9466;DHT22;4771;48.726;9.006;2024-03-08T12:40:26;9.30;99.90
9466;DHT22;4771;48.726;9.006;2024-03-08T12:42:54;9.40;99.90
9466;DHT22;4771;48.726;9.006;2024-03-08T12:45:22;9.40;99.90
9466;DHT22;4771;48.726;9.006;2024-03-08T12:47:51;9.40;99.90
9466;DHT22;4771;48.726;9.006;2024-03-08T12:50:19;9.30;99.90
9466;DHT22;4771;48.726;9.006;2024-03-08T12:52:46;9.40;99.90
9466;DHT22;4771;48.726;9.006;2024-03-08T12:55:14;9.40;99.90
9466;DHT22;4771;48.726;9.006;2024-03-08T12:57:42;9.40;99.90
9466;DHT22;4771;48.726;9.006;2024-03-08T13:00:10;9.30;99.90
9466;DHT22;4771;48.726;9.006;2024-03-08T13:02:44;9.40;99.90
9466;DHT22;4771;48.726;9.006;2024-03-08T13:05:13;9.30;99.90
9466;DHT22;4771;48.726;9.006;2024-03-08T13:07:40;9.30;99.90
9466;DHT22;4771;48.726;9.006;2024-03-08T13:10:11;9.40;99.90
9466;DHT22;4771;48.726;9.006;2024-03-08T13:12:40;9.40;99.90
9466;DHT22;4771;48.726;9.006;2024-03-08T13:15:08;9.40;99.90
9466;DHT22;4771;48.726;9.006;2024-03-08T13:17:37;9.40;99.90
9466;DHT22;4771;48.726;9.006;2024-03-08T13:20:07;9.40;99.90
9466;DHT22;4771;48.726;9.006;2024-03-08T13:22:38;9.40;99.90
9466;DHT22;4771;48.726;9.006;2024-03-08T13:25:06;9.40;99.90
9466;DHT22;4771;48.726;9.006;2024-03-08T13:27:38;9.50;99.90
9466;DHT22;4771;48.726;9.006;2024-03-08T13:30:07;9.50;99.90
9466;DHT22;4771;48.726;9.006;2024-03-08T13:32:38;9.50;99.90
9466;DHT22;4771;48.726;9.006;2024-03-08T13:35:06;9.50;99.90
9466;DHT22;4771;48.726;9.006;2024-03-08T13:37:40;9.50;99.90
9466;DHT22;4771;48.726;9.006;2024-03-08T13:40:08;9.50;99.90
9466;DHT22;4771;48.726;9.006;2024-03-08T13:42:39;9.40;99.90
9466;DHT22;4771;48.726;9.006;2024-03-08T13:45:08;9.40;99.90
9466;DHT22;4771;48.726;9.006;2024-03-08T13:47:37;9.30;99.90
9466;DHT22;4771;48.726;9.006;2024-03-08T13:50:06;9.30;99.90
9466;DHT22;4771;48.726;9.006;2024-03-08T13:52:37;9.30;99.90
9466;DHT22;4771;48.726;9.006;2024-03-08T13:55:06;9.30;99.90
9466;DHT22;4771;48.726;9.006;2024-03-08T13:57:33;9.30;99.90
9466;DHT22;4771;48.726;9.006;2024-03-08T14:00:00;9.30;99.90
9466;DHT22;4771;48.726;9.006;2024-03-08T14:02:28;9.30;99.90
9466;DHT22;4771;48.726;9.006;2024-03-08T14:04:56;9.30;99.90
9466;DHT22;4771;48.726;9.006;2024-03-08T14:07:27;9.40;99.90
9466;DHT22;4771;48.726;9.006;2024-03-08T14:09:54;9.40;99.90
9466;DHT22;4771;48.726;9.006;2024-03-08T14:12:23;9.50;99.90
9466;DHT22;4771;48.726;9.006;2024-03-08T14:14:51;9.50;99.90
9466;DHT22;4771;48.726;9.006;2024-03-08T14:17:18;9.50;99.90
9466;DHT22;4771;48.726;9.006;2024-03-08T14:19:45;9.60;99.90
9466;DHT22;4771;48.726;9.006;2024-03-08T14:22:12;9.60;99.90
9466;DHT22;4771;48.726;9.006;2024-03-08T14:24:40;9.60;99.90
9466;DHT22;4771;48.726;9.006;2024-03-08T14:27:07;9.60;99.90
9466;DHT22;4771;48.726;9.006;2024-03-08T14:29:36;9.60;99.90
9466;DHT22;4771;48.726;9.006;2024-03-08T14:32:04;9.50;99.90
9466;DHT22;4771;48.726;9.006;2024-03-08T14:34:31;9.50;99.90
9466;DHT22;4771;48.726;9.006;2024-03-08T14:37:02;9.50;99.90
9466;DHT22;4771;48.726;9.006;2024-03-08T14:39:31;9.50;99.90
9466;DHT22;4771;48.726;9.006;2024-03-08T14:41:59;9.50;99.90
9466;DHT22;4771;48.726;9.006;2024-03-08T14:44:25;9.50;99.90
9466;DHT22;4771;48.726;9.006;2024-03-08T14:46:54;9.40;99.90
9466;DHT22;4771;48.726;9.006;2024-03-08T14:49:26;9.40;99.90
9466;DHT22;4771;48.726;9.006;2024-03-08T14:51:54;9.40;99.90
9466;DHT22;4771;48.726;9.006;2024-03-08T14:54:23;9.40;99.90
9466;DHT22;4771;48.726;9.006;2024-03-08T14:56:51;9.40;99.90
9466;DHT22;4771;48.726;9.006;2024-03-08T14:59:20;9.40;99.90
9466;DHT22;4771;48.726;9.006;2024-03-08T15:01:48;9.30;99.90
9466;DHT22;4771;48.726;9.006;2024-03-08T15:04:17;9.20;99.90
9466;DHT22;4771;48.726;9.006;2024-03-08T15:06:44;9.10;99.90
9466;DHT22;4771;48.726;9.006;2024-03-08T15:09:11;9.20;99.90
9466;DHT22;4771;48.726;9.006;2024-03-08T15:11:45;9.20;99.90
9466;DHT22;4771;48.726;9.006;2024-03-08T15:14:14;9.00;99.70
9466;DHT22;4771;48.726;9.006;2024-03-08T15:16:44;9.00;99.70
9466;DHT22;4771;48.726;9.006;2024-03-08T15:19:13;9.00;99.90
9466;DHT22;4771;48.726;9.006;2024-03-08T15:21:42;9.00;99.90
9466;DHT22;4771;48.726;9.006;2024-03-08T15:24:11;9.00;99.90
9466;DHT22;4771;48.726;9.006;2024-03-08T15:26:43;9.00;99.90
9466;DHT22;4771;48.726;9.006;2024-03-08T15:29:16;9.00;99.90
9466;DHT22;4771;48.726;9.006;2024-03-08T15:31:45;9.00;99.90
9466;DHT22;4771;48.726;9.006;2024-03-08T15:34:12;9.00;99.90
9466;DHT22;4771;48.726;9.006;2024-03-08T15:36:46;8.90;99.90
9466;DHT22;4771;48.726;9.006;2024-03-08T15:39:16;8.90;99.90
9466;DHT22;4771;48.726;9.006;2024-03-08T15:41:49;8.90;99.90
9466;DHT22;4771;48.726;9.006;2024-03-08T15:44:16;8.80;99.90
9466;DHT22;4771;48.726;9.006;2024-03-08T15:46:43;8.80;99.90
9466;DHT22;4771;48.726;9.006;2024-03-08T15:49:11;8.80;99.90
9466;DHT22;4771;48.726;9.006;2024-03-08T15:51:38;8.80;99.90
9466;DHT22;4771;48.726;9.006;2024-03-08T15:54:08;8.70;99.90
9466;DHT22;4771;48.726;9.006;2024-03-08T15:56:39;8.70;99.90
9466;DHT22;4771;48.726;9.006;2024-03-08T15:59:07;8.70;99.90
9466;DHT22;4771;48.726;9.006;2024-03-08T16:01:38;8.60;99.90
9466;DHT22;4771;48.726;9.006;2024-03-08T16:04:05;8.70;99.90
9466;DHT22;4771;48.726;9.006;2024-03-08T16:06:32;8.60;99.90
9466;DHT22;4771;48.726;9.006;2024-03-08T16:09:01;8.60;99.90
9466;DHT22;4771;48.726;9.006;2024-03-08T16:11:31;8.60;99.90
9466;DHT22;4771;48.726;9.006;2024-03-08T16:14:03;8.60;99.90
9466;DHT22;4771;48.726;9.006;2024-03-08T16:16:30;8.50;99.90
9466;DHT22;4771;48.726;9.006;2024-03-08T16:18:57;8.60;99.90
9466;DHT22;4771;48.726;9.006;2024-03-08T16:21:24;8.60;99.90
9466;DHT22;4771;48.726;9.006;2024-03-08T16:23:52;8.60;99.90
9466;DHT22;4771;48.726;9.006;2024-03-08T16:26:19;8.60;99.90
9466;DHT22;4771;48.726;9.006;2024-03-08T16:28:50;8.60;99.90
9466;DHT22;4771;48.726;9.006;2024-03-08T16:31:19;8.70;99.90
9466;DHT22;4771;48.726;9.006;2024-03-08T16:33:46;8.60;99.90
9466;DHT22;4771;48.726;9.006;2024-03-08T16:36:13;8.70;99.90
9466;DHT22;4771;48.726;9.006;2024-03-08T16:38:41;8.60;99.90
9466;DHT22;4771;48.726;9.006;2024-03-08T16:41:10;8.60;99.90
9466;DHT22;4771;48.726;9.006;2024-03-08T16:43:41;8.60;99.90
9466;DHT22;4771;48.726;9.006;2024-03-08T16:46:10;8.60;99.90
9466;DHT22;4771;48.726;9.006;2024-03-08T16:48:42;8.50;99.90
9466;DHT22;4771;48.726;9.006;2024-03-08T16:51:09;8.50;99.90
9466;DHT22;4771;48.726;9.006;2024-03-08T16:53:36;8.50;99.90
9466;DHT22;4771;48.726;9.006;2024-03-08T16:56:06;8.50;99.90
9466;DHT22;4771;48.726;9.006;2024-03-08T16:58:37;8.50;99.90
9466;DHT22;4771;48.726;9.006;2024-03-08T17:01:04;8.50;99.90
9466;DHT22;4771;48.726;9.006;2024-03-08T17:03:33;8.40;99.90
9466;DHT22;4771;48.726;9.006;2024-03-08T17:05:59;8.40;99.90
9466;DHT22;4771;48.726;9.006;2024-03-08T17:08:28;8.40;99.90
9466;DHT22;4771;48.726;9.006;2024-03-08T17:10:55;8.40;99.90
9466;DHT22;4771;48.726;9.006;2024-03-08T17:13:23;8.40;99.90
9466;DHT22;4771;48.726;9.006;2024-03-08T17:15:50;8.30;99.90
9466;DHT22;4771;48.726;9.006;2024-03-08T17:18:18;8.30;99.90
9466;DHT22;4771;48.726;9.006;2024-03-08T17:20:47;8.30;99.90
9466;DHT22;4771;48.726;9.006;2024-03-08T17:23:14;8.30;99.90
9466;DHT22;4771;48.726;9.006;2024-03-08T17:25:42;8.30;99.90
9466;DHT22;4771;48.726;9.006;2024-03-08T17:28:11;8.20;99.90
9466;DHT22;4771;48.726;9.006;2024-03-08T17:30:39;8.20;99.90
9466;DHT22;4771;48.726;9.006;2024-03-08T17:33:09;8.30;99.90
9466;DHT22;4771;48.726;9.006;2024-03-08T17:35:39;8.10;99.90
9466;DHT22;4771;48.726;9.006;2024-03-08T17:38:08;8.10;99.90
9466;DHT22;4771;48.726;9.006;2024-03-08T17:40:36;8.00;99.90
9466;DHT22;4771;48.726;9.006;2024-03-08T17:43:05;8.00;99.90
9466;DHT22;4771;48.726;9.006;2024-03-08T17:45:34;8.00;99.90
9466;DHT22;4771;48.726;9.006;2024-03-08T17:48:02;8.00;99.90
9466;DHT22;4771;48.726;9.006;2024-03-08T17:50:30;7.90;99.90
9466;DHT22;4771;48.726;9.006;2024-03-08T17:52:57;7.90;99.90
9466;DHT22;4771;48.726;9.006;2024-03-08T17:55:25;7.90;99.90
9466;DHT22;4771;48.726;9.006;2024-03-08T17:57:55;7.90;99.90
9466;DHT22;4771;48.726;9.006;2024-03-08T18:00:24;7.80;99.90
9466;DHT22;4771;48.726;9.006;2024-03-08T18:02:55;7.80;99.90
9466;DHT22;4771;48.726;9.006;2024-03-08T18:05:23;7.80;99.90
9466;DHT22;4771;48.726;9.006;2024-03-08T18:07:53;7.80;99.90
9466;DHT22;4771;48.726;9.006;2024-03-08T18:10:24;7.80;99.90
9466;DHT22;4771;48.726;9.006;2024-03-08T18:12:53;7.80;99.90
9466;DHT22;4771;48.726;9.006;2024-03-08T18:15:24;7.70;99.90
9466;DHT22;4771;48.726;9.006;2024-03-08T18:17:52;7.60;99.90
9466;DHT22;4771;48.726;9.006;2024-03-08T18:20:20;8.10;99.90
9466;DHT22;4771;48.726;9.006;2024-03-08T18:22:51;7.60;99.90
9466;DHT22;4771;48.726;9.006;2024-03-08T18:25:18;7.60;99.90
9466;DHT22;4771;48.726;9.006;2024-03-08T18:27:50;7.60;99.90
9466;DHT22;4771;48.726;9.006;2024-03-08T18:30:17;7.60;99.90
9466;DHT22;4771;48.726;9.006;2024-03-08T18:32:45;7.60;99.90
9466;DHT22;4771;48.726;9.006;2024-03-08T18:35:13;7.60;99.90
9466;DHT22;4771;48.726;9.006;2024-03-08T18:37:41;7.50;99.90
9466;DHT22;4771;48.726;9.006;2024-03-08T18:40:10;7.50;99.90
9466;DHT22;4771;48.726;9.006;2024-03-08T18:42:39;7.20;99.90
9466;DHT22;4771;48.726;9.006;2024-03-08T18:45:08;7.40;99.90
9466;DHT22;4771;48.726;9.006;2024-03-08T18:47:40;7.40;99.90
9466;DHT22;4771;48.726;9.006;2024-03-08T18:50:09;7.40;99.90
9466;DHT22;4771;48.726;9.006;2024-03-08T18:52:38;7.40;99.90
9466;DHT22;4771;48.726;9.006;2024-03-08T18:55:05;7.40;99.90
9466;DHT22;4771;48.726;9.006;2024-03-08T18:57:36;7.30;99.90
9466;DHT22;4771;48.726;9.006;2024-03-08T19:00:08;7.30;99.90
9466;DHT22;4771;48.726;9.006;2024-03-08T19:02:40;7.30;99.90
9466;DHT22;4771;48.726;9.006;2024-03-08T19:05:07;7.20;99.90
9466;DHT22;4771;48.726;9.006;2024-03-08T19:07:41;7.30;99.90
9466;DHT22;4771;48.726;9.006;2024-03-08T19:10:09;7.30;99.90
9466;DHT22;4771;48.726;9.006;2024-03-08T19:12:38;7.30;99.90
9466;DHT22;4771;48.726;9.006;2024-03-08T19:15:08;7.30;99.90
9466;DHT22;4771;48.726;9.006;2024-03-08T19:17:35;7.30;99.90
9466;DHT22;4771;48.726;9.006;2024-03-08T19:20:04;7.30;99.90
9466;DHT22;4771;48.726;9.006;2024-03-08T19:22:39;7.20;99.90
9466;DHT22;4771;48.726;9.006;2024-03-08T19:25:07;7.30;99.90
9466;DHT22;4771;48.726;9.006;2024-03-08T19:27:35;7.20;99.90
9466;DHT22;4771;48.726;9.006;2024-03-08T19:30:04;7.10;99.90
9466;DHT22;4771;48.726;9.006;2024-03-08T19:32:34;7.10;99.90
9466;DHT22;4771;48.726;9.006;2024-03-08T19:35:00;7.10;99.90
9466;DHT22;4771;48.726;9.006;2024-03-08T19:37:35;7.10;99.90
9466;DHT22;4771;48.726;9.006;2024-03-08T19:40:04;7.10;99.90
9466;DHT22;4771;48.726;9.006;2024-03-08T19:42:31;7.10;99.90
9466;DHT22;4771;48.726;9.006;2024-03-08T19:45:00;7.10;99.90
9466;DHT22;4771;48.726;9.006;2024-03-08T19:47:27;7.10;99.90
9466;DHT22;4771;48.726;9.006;2024-03-08T19:49:56;7.00;99.90
9466;DHT22;4771;48.726;9.006;2024-03-08T19:52:24;7.00;99.90
9466;DHT22;4771;48.726;9.006;2024-03-08T19:54:51;7.00;99.90
9466;DHT22;4771;48.726;9.006;2024-03-08T19:57:19;6.90;99.90
9466;DHT22;4771;48.726;9.006;2024-03-08T19:59:46;6.80;99.90
9466;DHT22;4771;48.726;9.006;2024-03-08T20:02:13;6.90;99.90
9466;DHT22;4771;48.726;9.006;2024-03-08T20:04:43;6.90;99.90
9466;DHT22;4771;48.726;9.006;2024-03-08T20:07:13;6.90;99.90
9466;DHT22;4771;48.726;9.006;2024-03-08T20:09:40;6.80;99.90
9466;DHT22;4771;48.726;9.006;2024-03-08T20:12:07;6.80;99.90
9466;DHT22;4771;48.726;9.006;2024-03-08T20:14:34;6.70;99.90
9466;DHT22;4771;48.726;9.006;2024-03-08T20:17:01;6.70;99.90
9466;DHT22;4771;48.726;9.006;2024-03-08T20:19:29;6.70;99.90
9466;DHT22;4771;48.726;9.006;2024-03-08T20:21:57;6.60;99.90
9466;DHT22;4771;48.726;9.006;2024-03-08T20:24:26;6.60;99.90
9466;DHT22;4771;48.726;9.006;2024-03-08T20:26:53;6.50;99.90
9466;DHT22;4771;48.726;9.006;2024-03-08T20:29:20;6.50;99.90
9466;DHT22;4771;48.726;9.006;2024-03-08T20:31:47;6.50;99.90
9466;DHT22;4771;48.726;9.006;2024-03-08T20:34:14;6.50;99.90
9466;DHT22;4771;48.726;9.006;2024-03-08T20:36:43;6.50;99.90
9466;DHT22;4771;48.726;9.006;2024-03-08T20:39:10;6.50;99.90
9466;DHT22;4771;48.726;9.006;2024-03-08T20:41:41;6.50;99.90
9466;DHT22;4771;48.726;9.006;2024-03-08T20:44:09;6.40;99.90
9466;DHT22;4771;48.726;9.006;2024-03-08T20:46:37;6.40;99.90
9466;DHT22;4771;48.726;9.006;2024-03-08T20:49:05;6.40;99.90
9466;DHT22;4771;48.726;9.006;2024-03-08T20:51:33;6.40;99.90
9466;DHT22;4771;48.726;9.006;2024-03-08T20:54:00;6.30;99.90